Time;durP1;ratioP1;P1;durP2;ratioP2;P2;SDS_P1;SDS_P2;PMS_P1;PMS_P2;Temp;Humidity;BMP_temperature;BMP_pressure;BME280_temperature;BME280_humidity;BME280_pressure;Samples;Min_cycle;Max_cycle;Signal;HPM_P1;HPM_P2
2021/08/11 00:00:41;;;;;;;7.68;5.22;;;16.90;99.90;;;;;;2068763;28;20030;-69
2021/08/11 00:01:42;;;;;;;7.80;4.95;;;16.90;99.90;;;;;;2068858;28;20092;-69
2021/08/11 00:02:43;;;;;;;8.98;4.68;;;16.90;99.90;;;;;;2065899;28;20033;-69
2021/08/11 00:03:43;;;;;;;5.40;4.20;;;16.90;99.90;;;;;;2070821;28;20478;-69
2021/08/11 00:04:44;;;;;;;8.38;5.03;;;16.90;99.90;;;;;;2071073;28;20014;-69
2021/08/11 00:05:46;;;;;;;5.50;4.15;;;16.90;99.90;;;;;;2070640;28;20022;-69
2021/08/11 00:06:47;;;;;;;5.00;4.60;;;16.80;99.90;;;;;;2071365;28;20386;-69
2021/08/11 00:07:47;;;;;;;5.00;4.50;;;16.90;99.90;;;;;;2072295;28;20457;-69
2021/08/11 00:08:48;;;;;;;5.75;4.35;;;16.80;99.90;;;;;;2071946;28;20430;-69
2021/08/11 00:09:48;;;;;;;6.80;4.68;;;16.90;99.90;;;;;;2071627;28;20069;-69
2021/08/11 00:10:49;;;;;;;5.05;4.53;;;16.80;99.90;;;;;;2071742;28;20030;-69
2021/08/11 00:11:49;;;;;;;6.25;4.30;;;16.80;99.90;;;;;;2064097;28;20085;-69
2021/08/11 00:12:50;;;;;;;7.70;5.47;;;16.80;99.90;;;;;;2070911;28;20040;-69
2021/08/11 00:13:50;;;;;;;5.40;4.50;;;16.80;99.90;;;;;;2072008;28;20429;-69
2021/08/11 00:14:51;;;;;;;7.82;5.50;;;16.80;99.90;;;;;;2072277;28;20041;-69
2021/08/11 00:15:51;;;;;;;6.10;5.47;;;16.80;99.90;;;;;;2072173;28;20057;-69
2021/08/11 00:16:52;;;;;;;10.25;6.15;;;16.80;99.90;;;;;;2072282;28;20052;-69
2021/08/11 00:17:53;;;;;;;6.93;5.90;;;16.80;99.90;;;;;;2072245;28;20033;-69
2021/08/11 00:18:57;;;;;;;6.40;5.20;;;16.80;99.90;;;;;;2072325;28;20544;-69
2021/08/11 00:19:57;;;;;;;5.82;4.97;;;16.80;99.90;;;;;;2072450;28;20493;-69
2021/08/11 00:20:58;;;;;;;6.45;5.30;;;16.80;99.90;;;;;;2072175;28;20705;-69
2021/08/11 00:21:59;;;;;;;5.07;4.63;;;16.80;99.90;;;;;;2076637;28;20101;-69
2021/08/11 00:22:59;;;;;;;5.82;5.22;;;16.80;99.90;;;;;;2072087;28;20026;-69
2021/08/11 00:24:00;;;;;;;14.07;6.20;;;16.80;99.90;;;;;;2072047;28;20026;-69
2021/08/11 00:25:00;;;;;;;4.80;4.40;;;16.70;99.90;;;;;;2072258;28;20442;-69
2021/08/11 00:26:01;;;;;;;11.90;5.43;;;16.80;99.90;;;;;;2072322;28;20022;-69
2021/08/11 00:27:01;;;;;;;5.82;5.15;;;16.70;99.90;;;;;;2072120;28;20453;-69
2021/08/11 00:28:02;;;;;;;6.28;5.25;;;16.70;99.90;;;;;;2072178;28;20038;-69
2021/08/11 00:29:03;;;;;;;7.00;5.60;;;16.70;99.90;;;;;;2072280;28;20117;-69
2021/08/11 00:30:04;;;;;;;7.03;5.43;;;16.70;99.90;;;;;;2072076;28;20038;-69
2021/08/11 00:31:04;;;;;;;5.65;5.10;;;16.70;99.90;;;;;;2072161;28;20386;-69
2021/08/11 00:32:05;;;;;;;5.68;5.07;;;16.70;99.90;;;;;;2072340;28;20378;-69
2021/08/11 00:33:06;;;;;;;8.15;6.30;;;16.70;99.90;;;;;;2071607;28;20033;-69
2021/08/11 00:34:06;;;;;;;7.32;5.63;;;16.70;99.90;;;;;;2072425;28;20053;-69
2021/08/11 00:35:07;;;;;;;5.68;5.15;;;16.70;99.90;;;;;;2067620;28;20565;-69
2021/08/11 00:36:08;;;;;;;8.50;4.80;;;16.70;99.90;;;;;;2067667;28;20121;-69
2021/08/11 00:37:09;;;;;;;5.38;4.97;;;16.70;99.90;;;;;;2063193;28;20033;-69
2021/08/11 00:38:09;;;;;;;6.25;5.50;;;16.70;99.90;;;;;;2066662;28;20399;-69
2021/08/11 00:39:10;;;;;;;6.97;5.30;;;16.70;99.90;;;;;;2071849;28;20017;-69
2021/08/11 00:40:13;;;;;;;6.07;5.47;;;16.70;99.90;;;;;;2072380;28;20077;-69
2021/08/11 00:41:15;;;;;;;7.32;5.47;;;16.70;99.90;;;;;;2072205;28;20105;-69
2021/08/11 00:42:16;;;;;;;6.00;5.32;;;16.70;99.90;;;;;;2064026;28;20057;-69
2021/08/11 00:43:16;;;;;;;6.45;5.75;;;16.60;99.90;;;;;;2067033;28;20026;-69
2021/08/11 00:44:17;;;;;;;7.47;5.60;;;16.60;99.90;;;;;;2065254;28;20049;-69
2021/08/11 00:45:18;;;;;;;9.75;6.10;;;16.60;99.90;;;;;;2071795;28;20049;-69
2021/08/11 00:46:18;;;;;;;6.72;6.07;;;16.60;99.90;;;;;;2072108;28;20188;-69
2021/08/11 00:47:29;;;;;;;7.15;6.45;;;16.60;99.90;;;;;;2072085;28;20038;-69
2021/08/11 00:48:29;;;;;;;6.32;5.70;;;16.60;99.90;;;;;;2072330;28;20033;-69
2021/08/11 00:49:30;;;;;;;7.05;5.80;;;16.60;99.90;;;;;;2072170;28;20026;-69
2021/08/11 00:50:31;;;;;;;5.38;4.72;;;16.60;99.90;;;;;;2072109;28;20034;-69
2021/08/11 00:51:31;;;;;;;5.40;5.00;;;16.60;99.90;;;;;;2071668;28;20125;-69
2021/08/11 00:52:32;;;;;;;8.43;6.78;;;16.60;99.90;;;;;;2071398;28;20478;-69
2021/08/11 00:53:34;;;;;;;6.72;6.03;;;16.60;99.90;;;;;;2071066;28;20500;-69
2021/08/11 00:54:36;;;;;;;7.47;6.53;;;16.60;99.90;;;;;;2067488;28;20076;-69
2021/08/11 00:55:38;;;;;;;6.72;6.03;;;16.60;99.90;;;;;;2070934;28;20033;-69
2021/08/11 00:56:43;;;;;;;7.55;6.00;;;16.50;99.90;;;;;;2070928;28;20032;-69
2021/08/11 00:57:45;;;;;;;6.72;6.03;;;16.50;99.90;;;;;;2071937;28;20390;-69
2021/08/11 00:58:47;;;;;;;7.00;6.28;;;16.50;99.90;;;;;;2072044;28;20124;-69
2021/08/11 00:59:49;;;;;;;7.47;5.47;;;16.50;99.90;;;;;;2071788;28;20032;-69
2021/08/11 01:00:51;;;;;;;7.63;6.45;;;16.50;99.90;;;;;;2072176;28;20014;-69
2021/08/11 01:01:53;;;;;;;6.85;5.97;;;16.50;99.90;;;;;;2071169;28;20022;-69
2021/08/11 01:02:54;;;;;;;8.15;7.07;;;16.50;99.90;;;;;;2070928;28;20022;-69
2021/08/11 01:03:57;;;;;;;8.60;6.60;;;16.50;99.90;;;;;;2075998;28;20102;-69
2021/08/11 01:05:00;;;;;;;7.57;6.85;;;16.50;99.90;;;;;;2072357;28;20041;-69
2021/08/11 01:06:02;;;;;;;8.65;7.65;;;16.50;99.90;;;;;;2071714;28;20072;-69
2021/08/11 01:07:03;;;;;;;7.35;6.63;;;16.50;99.90;;;;;;2072057;28;20034;-69
2021/08/11 01:08:05;;;;;;;6.95;6.25;;;16.50;99.90;;;;;;2071636;28;20083;-69
2021/08/11 01:09:06;;;;;;;6.32;5.63;;;16.50;99.90;;;;;;2071983;28;20021;-69
2021/08/11 01:10:07;;;;;;;7.55;6.80;;;16.50;99.90;;;;;;2070797;28;20030;-69
2021/08/11 01:11:09;;;;;;;11.68;8.00;;;16.50;99.90;;;;;;2071151;28;20041;-69
2021/08/11 01:12:10;;;;;;;8.88;6.60;;;16.50;99.90;;;;;;2071845;28;20054;-69
2021/08/11 01:13:13;;;;;;;7.05;6.35;;;16.50;99.90;;;;;;2071814;28;20033;-69
2021/08/11 01:14:14;;;;;;;10.10;8.02;;;16.50;99.90;;;;;;2071922;28;20057;-69
2021/08/11 01:15:15;;;;;;;8.85;7.43;;;16.40;99.90;;;;;;2071809;28;20434;-69
2021/08/11 01:16:15;;;;;;;13.63;7.20;;;16.40;99.90;;;;;;2071649;28;20061;-69
2021/08/11 01:17:16;;;;;;;7.78;6.97;;;16.40;99.90;;;;;;2071890;28;20030;-69
2021/08/11 01:18:19;;;;;;;10.00;7.68;;;16.40;99.90;;;;;;2078302;28;20025;-69
2021/08/11 01:19:20;;;;;;;10.43;7.07;;;16.40;99.90;;;;;;2073030;28;20030;-69
2021/08/11 01:20:21;;;;;;;7.80;6.90;;;16.40;99.90;;;;;;2070745;28;20030;-69
2021/08/11 01:21:31;;;;;;;10.30;7.72;;;16.40;99.90;;;;;;2071725;28;20021;-69
2021/08/11 01:22:56;;;;;;;7.63;6.93;;;16.40;99.90;;;;;;2071804;28;20486;-69
2021/08/11 01:24:24;;;;;;;8.02;7.03;;;16.40;99.90;;;;;;2071970;28;20040;-69
2021/08/11 01:25:34;;;;;;;11.45;7.85;;;16.30;99.90;;;;;;2071591;28;20072;-69
2021/08/11 01:26:53;;;;;;;7.80;6.80;;;16.40;99.90;;;;;;2071879;28;20026;-69
2021/08/11 01:28:18;;;;;;;9.80;8.73;;;16.30;99.90;;;;;;2071696;28;20311;-69
2021/08/11 01:29:31;;;;;;;8.82;7.78;;;16.30;99.90;;;;;;2075411;28;20026;-69
2021/08/11 01:30:59;;;;;;;9.63;8.25;;;16.30;99.90;;;;;;2073861;28;20048;-69
2021/08/11 01:32:12;;;;;;;8.00;7.18;;;16.30;99.90;;;;;;2071661;28;20398;-69
2021/08/11 01:33:35;;;;;;;7.22;6.53;;;16.30;99.90;;;;;;2071363;28;20033;-69
2021/08/11 01:34:43;;;;;;;7.97;7.07;;;16.30;99.90;;;;;;2062228;28;20022;-69
2021/08/11 01:35:53;;;;;;;8.35;7.55;;;16.20;99.90;;;;;;2070135;28;20026;-69
2021/08/11 01:36:58;;;;;;;8.68;6.82;;;16.20;99.90;;;;;;2071583;28;20474;-69
2021/08/11 01:38:01;;;;;;;8.73;7.82;;;16.20;99.90;;;;;;2071717;28;20029;-69
2021/08/11 01:39:10;;;;;;;9.15;8.02;;;16.20;99.90;;;;;;2071248;28;20069;-69
2021/08/11 01:40:19;;;;;;;9.07;8.10;;;16.20;99.90;;;;;;2073919;28;20037;-69
2021/08/11 01:41:26;;;;;;;9.70;8.68;;;16.20;99.90;;;;;;2069439;28;20037;-69
2021/08/11 01:42:38;;;;;;;10.80;7.65;;;16.20;99.90;;;;;;2070176;28;20029;-69
2021/08/11 01:43:44;;;;;;;8.73;7.40;;;16.20;99.90;;;;;;2071471;28;20037;-69
2021/08/11 01:45:01;;;;;;;9.25;8.35;;;16.20;99.90;;;;;;2071759;28;20047;-69
2021/08/11 01:46:02;;;;;;;10.02;8.55;;;16.20;99.90;;;;;;2071576;28;20073;-69
2021/08/11 01:47:06;;;;;;;8.50;7.50;;;16.20;99.90;;;;;;2071623;28;20050;-69
2021/08/11 01:48:14;;;;;;;8.60;7.70;;;16.20;99.90;;;;;;2071397;28;20067;-69
2021/08/11 01:49:16;;;;;;;13.00;7.63;;;16.20;99.90;;;;;;2071646;28;20032;-69
2021/08/11 01:50:19;;;;;;;9.13;7.63;;;16.20;99.90;;;;;;2075228;28;20024;-69
2021/08/11 01:51:20;;;;;;;10.07;9.07;;;16.20;99.90;;;;;;2075884;28;20120;-69
2021/08/11 01:52:21;;;;;;;10.25;8.73;;;16.20;99.90;;;;;;2071487;28;20489;-69
2021/08/11 01:53:24;;;;;;;8.25;7.40;;;16.20;99.90;;;;;;2071041;28;20026;-69
2021/08/11 01:54:27;;;;;;;10.07;8.57;;;16.20;99.90;;;;;;2071646;28;20370;-69
2021/08/11 01:55:28;;;;;;;12.13;10.18;;;16.20;99.90;;;;;;2071634;28;20041;-69
2021/08/11 01:56:29;;;;;;;9.90;8.10;;;16.20;99.90;;;;;;2071472;28;20038;-69
2021/08/11 01:57:30;;;;;;;9.75;8.80;;;16.20;99.90;;;;;;2071280;28;20498;-69
2021/08/11 01:58:31;;;;;;;10.55;9.48;;;16.20;99.90;;;;;;2071644;28;20038;-69
2021/08/11 01:59:32;;;;;;;10.70;9.60;;;16.20;99.90;;;;;;2075041;28;20053;-69
2021/08/11 02:00:34;;;;;;;9.90;8.82;;;16.20;99.90;;;;;;2071845;28;20057;-69
2021/08/11 02:01:39;;;;;;;9.57;8.68;;;16.20;99.90;;;;;;2072191;28;20175;-69
2021/08/11 02:02:41;;;;;;;9.95;8.93;;;16.20;99.90;;;;;;2072429;28;20505;-70
2021/08/11 02:03:43;;;;;;;11.35;9.50;;;16.20;99.90;;;;;;2072677;28;20397;-69
2021/08/11 02:04:44;;;;;;;10.00;8.68;;;16.20;99.90;;;;;;2072745;28;20113;-69
2021/08/11 02:05:45;;;;;;;11.88;10.48;;;16.10;99.90;;;;;;2071998;28;20080;-69
2021/08/11 02:06:47;;;;;;;12.77;10.40;;;16.20;99.90;;;;;;2071985;28;20044;-69
2021/08/11 02:07:48;;;;;;;13.82;11.27;;;16.20;99.90;;;;;;2072554;28;20525;-69
2021/08/11 02:08:49;;;;;;;14.73;12.65;;;16.20;99.90;;;;;;2072537;28;20033;-69
2021/08/11 02:09:49;;;;;;;12.57;11.32;;;16.10;99.90;;;;;;2073317;28;20355;-69
2021/08/11 02:10:54;;;;;;;11.80;10.43;;;16.20;99.90;;;;;;2072863;28;20034;-69
2021/08/11 02:11:55;;;;;;;13.48;12.18;;;16.20;99.90;;;;;;2071839;28;20025;-69
2021/08/11 02:12:56;;;;;;;12.90;11.52;;;16.20;99.90;;;;;;2071790;28;20033;-69
2021/08/11 02:13:57;;;;;;;14.80;13.27;;;16.10;99.90;;;;;;2072793;28;20034;-69
2021/08/11 02:14:58;;;;;;;12.20;10.93;;;16.20;99.90;;;;;;2072740;28;20033;-69
2021/08/11 02:15:59;;;;;;;12.20;10.75;;;16.20;99.90;;;;;;2072578;28;20026;-69
2021/08/11 02:16:59;;;;;;;14.95;12.30;;;16.10;99.90;;;;;;2072498;28;20064;-69
2021/08/11 02:18:02;;;;;;;15.38;13.75;;;16.20;99.90;;;;;;2072890;28;20433;-69
2021/08/11 02:19:02;;;;;;;15.20;13.38;;;16.10;99.90;;;;;;2072540;28;20057;-69
2021/08/11 02:20:08;;;;;;;16.58;12.98;;;16.10;99.90;;;;;;2075204;28;20014;-69
2021/08/11 02:21:08;;;;;;;15.25;13.57;;;16.10;99.90;;;;;;2064480;28;20035;-69
2021/08/11 02:22:09;;;;;;;22.92;17.48;;;16.10;99.90;;;;;;2067494;28;20088;-69
2021/08/11 02:23:10;;;;;;;21.80;16.55;;;16.10;99.90;;;;;;2071217;28;20030;-69
2021/08/11 02:24:12;;;;;;;23.67;20.42;;;16.20;99.90;;;;;;2071585;28;20022;-69
2021/08/11 02:25:13;;;;;;;16.33;14.63;;;16.10;99.90;;;;;;2072335;28;20028;-69
2021/08/11 02:26:22;;;;;;;18.60;15.68;;;16.20;99.90;;;;;;2071804;28;20018;-69
2021/08/11 02:27:28;;;;;;;18.52;15.77;;;16.20;99.90;;;;;;2070544;28;20560;-69
2021/08/11 02:28:41;;;;;;;18.55;15.73;;;16.20;99.90;;;;;;2069253;28;20036;-69
2021/08/11 02:29:44;;;;;;;20.60;17.55;;;16.20;99.90;;;;;;2072870;28;20041;-69
2021/08/11 02:30:55;;;;;;;18.50;16.55;;;16.20;99.90;;;;;;2072295;28;20038;-69
2021/08/11 02:32:20;;;;;;;24.10;16.77;;;16.10;99.90;;;;;;2072365;28;20599;-69
2021/08/11 02:33:43;;;;;;;25.08;19.38;;;16.10;99.90;;;;;;2071528;28;20022;-69
2021/08/11 02:35:01;;;;;;;19.83;17.73;;;16.10;99.90;;;;;;2068193;28;20057;-69
2021/08/11 02:36:08;;;;;;;23.75;18.63;;;16.10;99.90;;;;;;2072691;28;20033;-69
2021/08/11 02:37:20;;;;;;;27.13;19.75;;;16.10;99.90;;;;;;2072135;28;20033;-69
2021/08/11 02:38:26;;;;;;;28.05;22.92;;;16.10;99.90;;;;;;2068993;28;20051;-69
2021/08/11 02:39:39;;;;;;;30.23;23.83;;;16.10;99.90;;;;;;2072423;28;20034;-69
2021/08/11 02:41:02;;;;;;;31.90;25.00;;;16.10;99.90;;;;;;2072436;28;20377;-69
2021/08/11 02:42:08;;;;;;;25.83;21.58;;;16.10;99.90;;;;;;2072397;28;20018;-69
2021/08/11 02:43:25;;;;;;;19.38;17.08;;;16.10;99.90;;;;;;2072110;28;20029;-69
2021/08/11 02:44:39;;;;;;;23.73;20.35;;;16.10;99.90;;;;;;2071964;28;20088;-69
2021/08/11 02:45:41;;;;;;;29.38;20.88;;;16.10;99.90;;;;;;2072079;28;20057;-69
2021/08/11 02:46:43;;;;;;;25.45;21.88;;;16.10;99.90;;;;;;2072567;28;20057;-69
2021/08/11 02:47:45;;;;;;;29.30;23.20;;;16.10;99.90;;;;;;2072405;28;20512;-69
2021/08/11 02:48:56;;;;;;;27.25;21.85;;;16.20;99.90;;;;;;2077594;28;20037;-69
2021/08/11 02:49:57;;;;;;;27.88;21.60;;;16.20;99.90;;;;;;2074383;28;20524;-69
2021/08/11 02:50:59;;;;;;;24.00;20.02;;;16.10;99.90;;;;;;2071985;28;20444;-69
2021/08/11 02:52:01;;;;;;;25.55;20.85;;;16.20;99.90;;;;;;2072283;28;20164;-69
2021/08/11 02:53:02;;;;;;;25.55;22.13;;;16.20;99.90;;;;;;2072082;28;20496;-69
2021/08/11 02:54:11;;;;;;;29.17;22.70;;;16.20;99.90;;;;;;2072367;28;20108;-69
2021/08/11 02:55:12;;;;;;;26.90;22.10;;;16.20;99.90;;;;;;2072600;28;20026;-69
2021/08/11 02:56:15;;;;;;;27.15;24.13;;;16.20;99.90;;;;;;2072151;28;20105;-69
2021/08/11 02:57:16;;;;;;;29.20;22.05;;;16.20;99.90;;;;;;2072487;28;20390;-69
2021/08/11 02:58:19;;;;;;;27.50;22.45;;;16.20;99.90;;;;;;2073068;28;20022;-69
2021/08/11 02:59:22;;;;;;;27.95;22.08;;;16.20;99.90;;;;;;2078492;28;20366;-69
2021/08/11 03:00:23;;;;;;;29.38;20.75;;;16.30;99.90;;;;;;2072382;28;20113;-69
2021/08/11 03:01:26;;;;;;;27.63;22.77;;;16.30;99.90;;;;;;2072425;28;20030;-69
2021/08/11 03:02:27;;;;;;;26.85;22.98;;;16.30;99.90;;;;;;2070925;28;20119;-69
2021/08/11 03:03:28;;;;;;;26.10;21.17;;;16.30;99.90;;;;;;2071001;28;20056;-69
2021/08/11 03:04:29;;;;;;;22.88;19.40;;;16.20;99.90;;;;;;2071562;28;20034;-69
2021/08/11 03:05:32;;;;;;;29.95;23.67;;;16.30;99.90;;;;;;2071774;28;20076;-69
2021/08/11 03:06:33;;;;;;;26.38;20.83;;;16.30;99.90;;;;;;2071668;28;20034;-69
2021/08/11 03:07:34;;;;;;;27.20;20.73;;;16.30;99.90;;;;;;2076017;28;20154;-69
2021/08/11 03:08:35;;;;;;;25.92;18.17;;;16.30;99.90;;;;;;2070761;28;20115;-69
2021/08/11 03:09:36;;;;;;;29.23;20.15;;;16.30;99.90;;;;;;2070994;28;20040;-69
2021/08/11 03:10:39;;;;;;;25.98;20.55;;;16.30;99.90;;;;;;2064536;28;20034;-69
2021/08/11 03:11:40;;;;;;;26.52;21.05;;;16.30;99.90;;;;;;2070306;28;20084;-69
2021/08/11 03:12:46;;;;;;;25.52;21.00;;;16.30;99.90;;;;;;2070633;28;20060;-69
2021/08/11 03:13:47;;;;;;;23.17;19.00;;;16.30;99.90;;;;;;2071214;28;20075;-69
2021/08/11 03:14:48;;;;;;;24.35;21.73;;;16.30;99.90;;;;;;2070788;28;20037;-69
2021/08/11 03:15:50;;;;;;;29.10;23.33;;;16.30;99.90;;;;;;2070867;28;20041;-69
2021/08/11 03:16:51;;;;;;;24.77;21.27;;;16.30;99.90;;;;;;2071241;28;20099;-69
2021/08/11 03:17:52;;;;;;;27.45;23.05;;;16.30;99.90;;;;;;2070507;28;20033;-69
2021/08/11 03:18:52;;;;;;;29.40;23.45;;;16.30;99.90;;;;;;2066826;28;20040;-69
2021/08/11 03:19:53;;;;;;;32.15;25.92;;;16.30;99.90;;;;;;2071084;28;20030;-69
2021/08/11 03:20:54;;;;;;;31.02;26.15;;;16.30;99.90;;;;;;2070841;28;20029;-69
2021/08/11 03:21:54;;;;;;;34.15;26.70;;;16.30;99.90;;;;;;2070719;28;20034;-69
2021/08/11 03:22:55;;;;;;;33.22;25.35;;;16.30;99.90;;;;;;2070875;28;20490;-69
2021/08/11 03:23:55;;;;;;;36.88;28.20;;;16.30;99.90;;;;;;2070969;28;20056;-69
2021/08/11 03:24:56;;;;;;;34.38;25.85;;;16.30;99.90;;;;;;2070894;28;20034;-69
2021/08/11 03:25:57;;;;;;;37.70;27.58;;;16.30;99.90;;;;;;2071152;28;20041;-69
2021/08/11 03:26:57;;;;;;;37.55;27.88;;;16.30;99.90;;;;;;2073758;28;20120;-69
2021/08/11 03:27:58;;;;;;;36.28;27.95;;;16.40;99.90;;;;;;2079055;28;20037;-69
2021/08/11 03:29:00;;;;;;;37.65;29.63;;;16.30;99.90;;;;;;2072445;28;20076;-69
2021/08/11 03:30:01;;;;;;;35.63;28.58;;;16.40;99.90;;;;;;2070784;28;20029;-69
2021/08/11 03:31:01;;;;;;;36.58;29.00;;;16.40;99.90;;;;;;2070907;28;20057;-69
2021/08/11 03:32:02;;;;;;;37.45;29.25;;;16.40;99.90;;;;;;2070761;28;20097;-69
2021/08/11 03:33:04;;;;;;;39.88;29.30;;;16.40;99.90;;;;;;2070969;28;20057;-69
2021/08/11 03:34:04;;;;;;;37.65;27.63;;;16.40;99.90;;;;;;2070891;28;20028;-70
2021/08/11 03:35:05;;;;;;;32.47;26.20;;;16.40;99.90;;;;;;2068557;28;20030;-69
2021/08/11 03:36:06;;;;;;;31.13;25.55;;;16.40;99.90;;;;;;2071166;28;20500;-69
2021/08/11 03:37:07;;;;;;;28.73;23.00;;;16.40;99.90;;;;;;2071150;28;20026;-69
2021/08/11 03:38:08;;;;;;;30.85;24.75;;;16.40;99.90;;;;;;2070652;28;20075;-69
2021/08/11 03:39:08;;;;;;;33.08;26.60;;;16.40;99.90;;;;;;2070961;28;20026;-69
2021/08/11 03:40:09;;;;;;;32.30;26.50;;;16.40;99.90;;;;;;2070785;28;20022;-69
2021/08/11 03:41:10;;;;;;;30.40;25.52;;;16.40;99.90;;;;;;2070946;28;20022;-69
2021/08/11 03:42:11;;;;;;;26.88;21.63;;;16.40;99.90;;;;;;2070723;28;20068;-69
2021/08/11 03:43:11;;;;;;;26.33;22.10;;;16.40;99.90;;;;;;2068408;28;20018;-69
2021/08/11 03:44:12;;;;;;;26.45;21.70;;;16.40;99.90;;;;;;2071879;28;20024;-69
2021/08/11 03:45:12;;;;;;;30.38;23.73;;;16.40;99.90;;;;;;2072591;28;20049;-69
2021/08/11 03:46:13;;;;;;;25.42;21.67;;;16.40;99.90;;;;;;2071716;28;20043;-69
2021/08/11 03:47:14;;;;;;;23.55;20.70;;;16.40;99.90;;;;;;2076745;28;20104;-69
2021/08/11 03:48:14;;;;;;;25.90;20.50;;;16.40;99.90;;;;;;2074373;28;20053;-69
2021/08/11 03:49:15;;;;;;;26.00;20.65;;;16.40;99.90;;;;;;2072211;28;20885;-69
2021/08/11 03:50:17;;;;;;;24.38;20.92;;;16.40;99.90;;;;;;2072742;28;20393;-69
2021/08/11 03:51:17;;;;;;;24.35;20.55;;;16.40;99.90;;;;;;2072487;28;20026;-69
2021/08/11 03:52:18;;;;;;;23.75;18.58;;;16.40;99.90;;;;;;2072238;28;20017;-69
2021/08/11 03:53:19;;;;;;;23.55;16.75;;;16.40;99.90;;;;;;2072475;28;20124;-69
2021/08/11 03:54:19;;;;;;;19.77;16.73;;;16.40;99.90;;;;;;2072277;28;20033;-69
2021/08/11 03:55:20;;;;;;;17.67;15.85;;;16.40;99.90;;;;;;2072594;28;20030;-69
2021/08/11 03:56:21;;;;;;;18.55;16.52;;;16.40;99.90;;;;;;2072178;28;20030;-69
2021/08/11 03:57:21;;;;;;;21.48;19.17;;;16.40;99.90;;;;;;2071893;28;20556;-69
2021/08/11 03:58:22;;;;;;;26.75;21.27;;;16.40;99.90;;;;;;2071738;28;20041;-69
2021/08/11 03:59:22;;;;;;;24.38;20.35;;;16.40;99.90;;;;;;2072318;28;20084;-69
2021/08/11 04:00:23;;;;;;;23.55;20.40;;;16.40;99.90;;;;;;2072476;28;20398;-69
2021/08/11 04:01:24;;;;;;;21.48;17.13;;;16.40;99.90;;;;;;2072576;28;20088;-69
2021/08/11 04:02:25;;;;;;;22.55;19.42;;;16.40;99.90;;;;;;2072296;28;20510;-69
2021/08/11 04:03:25;;;;;;;24.50;19.27;;;16.40;99.90;;;;;;2072224;28;20075;-69
2021/08/11 04:04:26;;;;;;;24.38;21.02;;;16.40;99.90;;;;;;2072437;28;20080;-69
2021/08/11 04:05:27;;;;;;;25.38;19.27;;;16.40;99.90;;;;;;2072604;28;20148;-69
2021/08/11 04:06:27;;;;;;;21.73;18.52;;;16.40;99.90;;;;;;2072489;28;20029;-69
2021/08/11 04:07:28;;;;;;;18.88;16.75;;;16.40;99.90;;;;;;2076808;28;20037;-69
2021/08/11 04:08:28;;;;;;;21.95;17.33;;;16.40;99.90;;;;;;2072378;28;20034;-69
2021/08/11 04:09:29;;;;;;;21.20;17.80;;;16.40;99.90;;;;;;2072406;28;20028;-69
2021/08/11 04:10:29;;;;;;;20.58;17.17;;;16.40;99.90;;;;;;2072156;28;20112;-69
2021/08/11 04:11:30;;;;;;;19.83;15.65;;;16.40;99.90;;;;;;2072367;28;20061;-69
2021/08/11 04:12:31;;;;;;;21.52;18.13;;;16.40;99.90;;;;;;2072276;28;20389;-69
2021/08/11 04:13:31;;;;;;;19.92;17.55;;;16.40;99.90;;;;;;2071288;28;20032;-69
2021/08/11 04:14:32;;;;;;;27.20;19.35;;;16.40;99.90;;;;;;2072466;28;20037;-69
2021/08/11 04:15:32;;;;;;;21.45;16.98;;;16.40;99.90;;;;;;2072308;28;20089;-69
2021/08/11 04:16:33;;;;;;;21.40;18.08;;;16.40;99.90;;;;;;2075674;28;20044;-69
2021/08/11 04:17:34;;;;;;;19.63;17.38;;;16.40;99.90;;;;;;2074011;28;20022;-69
2021/08/11 04:18:34;;;;;;;24.02;18.77;;;16.40;99.90;;;;;;2072156;28;20050;-69
2021/08/11 04:19:35;;;;;;;23.92;17.55;;;16.40;99.90;;;;;;2072363;28;20040;-69
2021/08/11 04:20:37;;;;;;;25.98;19.60;;;16.40;99.90;;;;;;2072691;28;20033;-69
2021/08/11 04:21:37;;;;;;;21.70;18.05;;;16.40;99.90;;;;;;2072161;28;20014;-69
2021/08/11 04:22:38;;;;;;;21.13;18.75;;;16.40;99.90;;;;;;2071891;28;20113;-69
2021/08/11 04:23:38;;;;;;;20.42;18.02;;;16.40;99.90;;;;;;2072027;28;20029;-69
2021/08/11 04:24:39;;;;;;;21.10;17.05;;;16.40;99.90;;;;;;2072381;28;20416;-69
2021/08/11 04:25:41;;;;;;;19.50;17.38;;;16.50;99.90;;;;;;2072036;28;20026;-69
2021/08/11 04:26:41;;;;;;;21.40;16.92;;;16.40;99.90;;;;;;2075196;28;20583;-69
2021/08/11 04:27:42;;;;;;;20.33;17.38;;;16.40;99.90;;;;;;2072026;28;20449;-69
2021/08/11 04:28:43;;;;;;;20.25;17.10;;;16.50;99.90;;;;;;2072252;28;20505;-69
2021/08/11 04:29:44;;;;;;;18.52;15.63;;;16.50;99.90;;;;;;2071940;28;20034;-69
2021/08/11 04:30:44;;;;;;;22.10;16.83;;;16.50;99.90;;;;;;2072084;28;20045;-69
2021/08/11 04:31:45;;;;;;;20.00;16.60;;;16.50;99.90;;;;;;2072186;28;20026;-69
2021/08/11 04:32:45;;;;;;;19.13;16.33;;;16.50;99.90;;;;;;2072050;28;20402;-69
2021/08/11 04:33:46;;;;;;;18.60;15.15;;;16.50;99.90;;;;;;2071895;28;20084;-69
2021/08/11 04:34:47;;;;;;;20.42;16.98;;;16.50;99.90;;;;;;2072372;28;20045;-69
2021/08/11 04:35:47;;;;;;;19.40;17.35;;;16.50;99.90;;;;;;2071285;28;20025;-69
2021/08/11 04:36:48;;;;;;;22.00;17.77;;;16.50;99.90;;;;;;2071603;28;20113;-69
2021/08/11 04:37:48;;;;;;;19.75;16.63;;;16.50;99.90;;;;;;2071783;28;20025;-69
2021/08/11 04:38:49;;;;;;;21.08;18.45;;;16.50;99.90;;;;;;2072190;28;20026;-69
2021/08/11 04:39:51;;;;;;;18.55;15.40;;;16.50;99.90;;;;;;2072075;28;20033;-69
2021/08/11 04:40:52;;;;;;;21.63;17.77;;;16.50;99.90;;;;;;2072317;28;20488;-69
2021/08/11 04:41:53;;;;;;;16.67;14.40;;;16.50;99.90;;;;;;2071739;28;20033;-69
2021/08/11 04:42:53;;;;;;;17.85;15.95;;;16.50;99.90;;;;;;2071663;28;20030;-69
2021/08/11 04:43:54;;;;;;;17.98;16.08;;;16.50;99.90;;;;;;2072281;28;20026;-70
2021/08/11 04:44:54;;;;;;;17.98;15.65;;;16.50;99.90;;;;;;2071945;28;20033;-69
2021/08/11 04:45:55;;;;;;;20.90;18.45;;;16.50;99.90;;;;;;2072183;28;20033;-69
2021/08/11 04:46:55;;;;;;;22.73;17.35;;;16.50;99.90;;;;;;2077694;28;20096;-69
2021/08/11 04:47:56;;;;;;;22.70;17.73;;;16.50;99.90;;;;;;2077011;28;20119;-69
2021/08/11 04:48:56;;;;;;;24.20;18.25;;;16.50;99.90;;;;;;2071399;28;20505;-69
2021/08/11 04:49:57;;;;;;;18.77;16.60;;;16.50;99.90;;;;;;2072218;28;20030;-69
2021/08/11 04:50:58;;;;;;;18.55;16.63;;;16.50;99.90;;;;;;2071457;28;20088;-69
2021/08/11 04:51:58;;;;;;;15.82;14.10;;;16.50;99.90;;;;;;2071840;28;20101;-69
2021/08/11 04:52:59;;;;;;;16.20;14.45;;;16.50;99.90;;;;;;2066518;28;20125;-69
2021/08/11 04:54:00;;;;;;;18.50;15.82;;;16.50;99.90;;;;;;2071609;28;20030;-69
2021/08/11 04:55:04;;;;;;;17.85;16.02;;;16.50;99.90;;;;;;2070862;28;20557;-69
2021/08/11 04:56:04;;;;;;;19.52;16.75;;;16.50;99.90;;;;;;2072317;28;20029;-69
2021/08/11 04:57:05;;;;;;;19.85;17.67;;;16.60;99.90;;;;;;2071885;28;20097;-69
2021/08/11 04:58:06;;;;;;;23.80;18.38;;;16.50;99.90;;;;;;2072109;28;20022;-69
2021/08/11 04:59:06;;;;;;;17.95;15.65;;;16.60;99.90;;;;;;2071972;28;20492;-69
2021/08/11 05:00:08;;;;;;;18.02;15.75;;;16.60;99.90;;;;;;2071835;28;20033;-69
2021/08/11 05:01:08;;;;;;;19.73;16.83;;;16.50;99.90;;;;;;2071891;28;20076;-69
2021/08/11 05:02:09;;;;;;;19.05;16.10;;;16.60;99.90;;;;;;2072056;28;20093;-69
2021/08/11 05:03:09;;;;;;;21.75;17.08;;;16.60;99.90;;;;;;2070201;28;20425;-69
2021/08/11 05:04:10;;;;;;;17.38;15.55;;;16.60;99.90;;;;;;2071385;28;20091;-69
2021/08/11 05:05:11;;;;;;;20.35;18.15;;;16.60;99.90;;;;;;2071883;28;20049;-69
2021/08/11 05:06:11;;;;;;;22.00;17.85;;;16.60;99.90;;;;;;2073856;28;20100;-69
2021/08/11 05:07:12;;;;;;;25.50;18.73;;;16.60;99.90;;;;;;2072484;28;20026;-69
2021/08/11 05:08:12;;;;;;;19.02;16.75;;;16.60;99.90;;;;;;2071992;28;20439;-69
2021/08/11 05:09:13;;;;;;;19.42;15.45;;;16.60;99.90;;;;;;2071957;28;20030;-69
2021/08/11 05:10:16;;;;;;;19.17;17.13;;;16.70;99.90;;;;;;2071823;28;20034;-69
2021/08/11 05:11:16;;;;;;;19.70;17.35;;;16.70;99.90;;;;;;2071653;28;20056;-69
2021/08/11 05:12:17;;;;;;;24.70;17.42;;;16.70;99.90;;;;;;2072027;28;20119;-69
2021/08/11 05:13:18;;;;;;;19.52;16.60;;;16.70;99.90;;;;;;2071688;28;20756;-69
2021/08/11 05:14:18;;;;;;;24.05;18.85;;;16.70;99.90;;;;;;2071783;28;20501;-69
2021/08/11 05:15:19;;;;;;;22.08;18.58;;;16.70;99.90;;;;;;2071555;28;20060;-69
2021/08/11 05:16:19;;;;;;;19.13;17.00;;;16.80;99.90;;;;;;2076343;28;20033;-69
2021/08/11 05:17:23;;;;;;;24.33;19.45;;;16.80;99.90;;;;;;2075256;28;20040;-69
2021/08/11 05:18:24;;;;;;;18.90;16.90;;;16.80;99.90;;;;;;2063619;28;20363;-69
2021/08/11 05:19:24;;;;;;;18.90;15.93;;;16.80;99.90;;;;;;2071826;28;20072;-69
2021/08/11 05:20:25;;;;;;;23.55;17.67;;;16.80;99.90;;;;;;2071932;28;20025;-69